Time;durP1;ratioP1;P1;durP2;ratioP2;P2;SDS_P1;SDS_P2;PMS_P1;PMS_P2;Temp;Humidity;BMP_temperature;BMP_pressure;BME280_temperature;BME280_humidity;BME280_pressure;Samples;Min_cycle;Max_cycle;Signal;HPM_P1;HPM_P2
2022/06/07 00:01:04;;;;;;;64.72;37.42;;;27.30;99.90;;;;;;5074904;28;20020;-65
2022/06/07 00:03:31;;;;;;;77.43;40.45;;;27.30;99.90;;;;;;5077351;28;20408;-65
2022/06/07 00:05:58;;;;;;;74.82;42.10;;;27.20;99.90;;;;;;5077110;28;20079;-64
2022/06/07 00:08:24;;;;;;;69.25;43.10;;;27.20;99.90;;;;;;5075757;28;20162;-64
2022/06/07 00:10:51;;;;;;;78.53;44.38;;;27.30;99.90;;;;;;5077433;28;20021;-64
2022/06/07 00:13:19;;;;;;;73.25;43.08;;;27.30;99.90;;;;;;5075225;28;20354;-63
2022/06/07 00:15:46;;;;;;;76.85;44.17;;;27.40;99.90;;;;;;5075774;28;20444;-65
2022/06/07 00:18:12;;;;;;;66.85;43.08;;;27.40;99.90;;;;;;5075749;28;20028;-65
2022/06/07 00:20:41;;;;;;;70.90;44.40;;;27.40;99.90;;;;;;5075957;28;20082;-65
2022/06/07 00:23:12;;;;;;;70.05;41.50;;;27.40;99.90;;;;;;5076206;28;20561;-66
2022/06/07 00:25:40;;;;;;;64.78;42.30;;;27.40;99.90;;;;;;5076741;28;20381;-64
2022/06/07 00:28:06;;;;;;;80.28;54.42;;;27.40;99.90;;;;;;5070040;28;20523;-65
2022/06/07 00:30:34;;;;;;;76.32;45.78;;;27.40;99.90;;;;;;5066668;28;20072;-66
2022/06/07 00:33:01;;;;;;;64.20;40.63;;;27.50;99.90;;;;;;5074662;28;20021;-65
2022/06/07 00:35:27;;;;;;;60.78;39.58;;;27.40;99.90;;;;;;5076175;28;20024;-67
2022/06/07 00:37:54;;;;;;;68.38;37.10;;;27.50;99.90;;;;;;5076390;28;20029;-66
2022/06/07 00:40:21;;;;;;;70.90;39.13;;;27.50;99.90;;;;;;5074333;28;20025;-66
2022/06/07 00:42:48;;;;;;;73.63;39.25;;;27.50;99.90;;;;;;5074658;28;20029;-65
2022/06/07 00:45:18;;;;;;;61.95;34.42;;;27.60;99.90;;;;;;5076369;28;20381;-66
2022/06/07 00:47:47;;;;;;;77.18;38.58;;;27.60;99.90;;;;;;5070667;28;20385;-67
2022/06/07 00:50:58;;;;;;;64.38;37.92;;;27.60;99.90;;;;;;5074643;28;20060;-66
2022/06/07 00:53:28;;;;;;;59.20;36.00;;;27.70;99.90;;;;;;5037397;28;20033;-66
2022/06/07 00:55:55;;;;;;;59.47;32.53;;;27.70;99.90;;;;;;5055522;28;20029;-68
2022/06/07 00:58:25;;;;;;;53.33;30.88;;;27.70;99.90;;;;;;5069076;28;20074;-66
2022/06/07 01:00:53;;;;;;;44.72;31.20;;;27.80;99.90;;;;;;5074131;28;20047;-66
2022/06/07 01:03:21;;;;;;;64.28;31.23;;;27.90;99.90;;;;;;5076050;28;20024;-66
2022/06/07 01:05:49;;;;;;;64.35;32.28;;;28.00;99.90;;;;;;5076103;28;20470;-65
2022/06/07 01:11:01;;;;;;;63.58;31.85;;;28.00;99.90;;;;;;5065630;28;20028;-70
2022/06/07 01:13:32;;;;;;;49.00;28.90;;;28.00;99.90;;;;;;5064342;28;20020;-67
2022/06/07 01:16:01;;;;;;;49.15;27.42;;;28.10;99.90;;;;;;5072100;28;20508;-69
2022/06/07 01:18:29;;;;;;;55.30;29.85;;;28.10;99.90;;;;;;5059995;28;20024;-69
2022/06/07 01:21:15;;;;;;;48.63;28.17;;;28.10;99.90;;;;;;5071057;28;20036;-68
2022/06/07 01:23:43;;;;;;;30.02;19.70;;;28.10;99.90;;;;;;5071396;28;20501;-66
2022/06/07 01:26:11;;;;;;;30.95;20.58;;;28.20;99.90;;;;;;5064644;28;20143;-67
2022/06/07 01:28:39;;;;;;;33.78;21.45;;;28.30;99.90;;;;;;5055800;28;20120;-66
2022/06/07 01:31:06;;;;;;;34.17;22.52;;;28.50;99.90;;;;;;5065079;28;20358;-67
2022/06/07 01:33:33;;;;;;;33.40;21.77;;;28.60;99.90;;;;;;5073347;28;20130;-67
2022/06/07 01:36:12;;;;;;;29.52;19.00;;;28.70;99.90;;;;;;5073860;28;20027;-67
2022/06/07 01:38:40;;;;;;;33.30;19.77;;;28.70;99.90;;;;;;5074221;28;20097;-66
2022/06/07 01:43:53;;;;;;;28.67;17.05;;;28.80;99.90;;;;;;5065985;28;20044;-66
2022/06/07 01:46:19;;;;;;;34.75;19.73;;;28.90;99.90;;;;;;5066034;28;20503;-66
2022/06/07 01:48:46;;;;;;;31.23;16.63;;;29.00;99.90;;;;;;5064422;28;20456;-64
2022/06/07 01:51:14;;;;;;;32.05;18.08;;;29.10;99.90;;;;;;5066251;28;20289;-65
2022/06/07 01:53:41;;;;;;;39.53;23.25;;;29.20;99.90;;;;;;5067803;28;20520;-66
2022/06/07 01:56:14;;;;;;;82.70;45.45;;;29.30;99.90;;;;;;5067551;28;20477;-63
2022/06/07 01:58:43;;;;;;;43.97;23.52;;;29.50;99.90;;;;;;5065110;28;20082;-65
2022/06/07 02:01:11;;;;;;;45.85;24.75;;;29.50;99.90;;;;;;5069757;28;20410;-66
2022/06/07 02:03:38;;;;;;;28.88;17.63;;;29.50;99.90;;;;;;5064747;28;20017;-63
2022/06/07 02:06:09;;;;;;;44.63;24.15;;;29.60;99.90;;;;;;5070632;28;20032;-65
2022/06/07 02:08:36;;;;;;;41.92;23.25;;;29.60;99.90;;;;;;5081600;28;20043;-64
2022/06/07 02:11:09;;;;;;;22.15;13.15;;;29.50;99.90;;;;;;5080846;28;20125;-65
2022/06/07 02:13:37;;;;;;;15.48;9.10;;;29.50;99.90;;;;;;5062829;28;20393;-62
2022/06/07 02:16:04;;;;;;;65.38;40.88;;;29.60;99.90;;;;;;5071211;28;20024;-62
2022/06/07 02:18:32;;;;;;;34.83;24.75;;;29.90;99.90;;;;;;5074590;28;20385;-62
2022/06/07 02:21:00;;;;;;;18.73;14.15;;;29.90;99.90;;;;;;5073228;28;20033;-64
2022/06/07 02:23:30;;;;;;;15.35;8.45;;;29.90;99.90;;;;;;5058285;28;20438;-65
2022/06/07 02:26:21;;;;;;;18.58;9.30;;;29.90;99.90;;;;;;5056287;28;20028;-65
2022/06/07 02:29:13;;;;;;;12.95;5.80;;;30.10;99.90;;;;;;5066976;28;20090;-70
2022/06/07 02:31:46;;;;;;;11.27;6.45;;;30.00;99.90;;;;;;5063722;28;20021;-67
2022/06/07 02:34:15;;;;;;;12.45;5.63;;;30.00;99.90;;;;;;5062851;28;20028;-64
2022/06/07 02:36:44;;;;;;;11.68;5.18;;;29.90;99.90;;;;;;5062439;28;20029;-66
2022/06/07 02:39:10;;;;;;;11.55;7.07;;;29.90;99.90;;;;;;5064152;28;20020;-66
2022/06/07 02:41:37;;;;;;;13.32;6.15;;;30.00;99.90;;;;;;5063437;28;20036;-67
2022/06/07 02:44:04;;;;;;;10.32;5.70;;;30.00;99.90;;;;;;5062877;28;20016;-65
2022/06/07 02:46:30;;;;;;;10.30;5.78;;;29.90;99.90;;;;;;5062026;28;20377;-66
2022/06/07 02:48:57;;;;;;;10.38;6.05;;;30.10;99.90;;;;;;5064423;28;20017;-66
2022/06/07 02:51:24;;;;;;;13.95;8.68;;;30.20;99.90;;;;;;5063862;28;20382;-66
2022/06/07 02:53:51;;;;;;;13.00;7.72;;;30.40;99.90;;;;;;5069313;28;20021;-66
2022/06/07 02:56:17;;;;;;;13.45;6.25;;;30.50;99.90;;;;;;5071969;28;20031;-64
2022/06/07 02:58:44;;;;;;;17.45;11.30;;;30.60;99.90;;;;;;5071750;28;20032;-68
2022/06/07 03:01:11;;;;;;;42.70;27.42;;;30.80;99.90;;;;;;5073729;28;20482;-68
2022/06/07 03:03:38;;;;;;;21.75;12.88;;;30.80;99.90;;;;;;5072705;28;20040;-64
2022/06/07 03:06:05;;;;;;;15.40;9.02;;;30.80;99.90;;;;;;5071430;28;20059;-64
2022/06/07 03:08:33;;;;;;;14.20;7.45;;;30.80;99.90;;;;;;5073079;28;20055;-64
2022/06/07 03:11:00;;;;;;;29.75;17.13;;;30.80;99.90;;;;;;5071290;28;20028;-63
2022/06/07 03:13:26;;;;;;;31.70;22.30;;;30.80;99.90;;;;;;5068173;28;20032;-62
2022/06/07 03:15:53;;;;;;;13.02;7.55;;;30.70;99.90;;;;;;5068144;28;20051;-64
2022/06/07 03:18:20;;;;;;;25.80;16.63;;;30.70;99.90;;;;;;5065538;28;20112;-65
2022/06/07 03:20:48;;;;;;;21.98;14.07;;;30.70;99.90;;;;;;5064193;28;20486;-65
2022/06/07 03:23:15;;;;;;;17.33;10.02;;;30.80;99.90;;;;;;5065072;28;20094;-65
2022/06/07 03:25:42;;;;;;;11.73;8.70;;;30.80;99.90;;;;;;5065260;28;20133;-63
2022/06/07 03:28:09;;;;;;;13.32;8.55;;;30.90;99.90;;;;;;5064048;28;20039;-64
2022/06/07 03:30:38;;;;;;;37.60;17.13;;;30.90;99.90;;;;;;5069640;28;20037;-65
2022/06/07 03:33:05;;;;;;;24.23;10.05;;;31.00;99.90;;;;;;5063732;28;20025;-63
2022/06/07 03:35:33;;;;;;;13.63;9.13;;;31.10;99.90;;;;;;5063707;28;20090;-61
2022/06/07 03:38:00;;;;;;;17.15;9.05;;;31.20;99.90;;;;;;5063452;28;20067;-64
2022/06/07 03:40:45;;;;;;;14.40;8.13;;;31.30;99.90;;;;;;5064156;28;20028;-64
2022/06/07 03:43:13;;;;;;;19.17;7.32;;;31.30;99.90;;;;;;5063234;28;20052;-62
2022/06/07 03:45:40;;;;;;;14.75;7.13;;;31.30;99.90;;;;;;5066974;28;20029;-63
2022/06/07 03:48:08;;;;;;;22.38;14.07;;;31.30;99.90;;;;;;5070772;28;20056;-63
2022/06/07 03:50:36;;;;;;;19.75;9.15;;;31.20;99.90;;;;;;5070611;28;20056;-63
2022/06/07 03:53:02;;;;;;;13.95;8.15;;;31.20;99.90;;;;;;5071813;28;20056;-64
2022/06/07 03:55:29;;;;;;;9.27;6.20;;;31.10;99.90;;;;;;5072500;28;20020;-65
2022/06/07 03:57:56;;;;;;;17.15;6.80;;;31.10;99.90;;;;;;5072839;28;20073;-61
2022/06/07 04:00:23;;;;;;;11.50;6.30;;;31.10;99.90;;;;;;5072130;28;20020;-61
2022/06/07 04:02:49;;;;;;;11.93;6.72;;;31.20;99.90;;;;;;5071419;28;20100;-64
2022/06/07 04:05:16;;;;;;;11.50;6.53;;;31.30;99.90;;;;;;5073065;28;20028;-64
2022/06/07 04:10:28;;;;;;;27.55;13.13;;;31.20;99.90;;;;;;5072041;28;20043;-63
2022/06/07 04:12:54;;;;;;;25.75;16.40;;;31.20;99.90;;;;;;5065926;28;20481;-62
2022/06/07 04:15:21;;;;;;;33.65;16.77;;;31.20;99.90;;;;;;5068625;28;20055;-63
2022/06/07 04:17:48;;;;;;;17.88;10.00;;;31.10;99.90;;;;;;5070377;28;20028;-63
2022/06/07 04:20:14;;;;;;;15.43;8.85;;;31.10;99.90;;;;;;5069900;28;20029;-66
2022/06/07 04:22:41;;;;;;;16.33;8.43;;;31.10;99.90;;;;;;5067408;28;20024;-62
2022/06/07 04:25:08;;;;;;;13.07;7.88;;;31.20;99.90;;;;;;5062608;28;20088;-63
2022/06/07 04:27:35;;;;;;;11.48;6.70;;;31.30;99.90;;;;;;5065010;28;20142;-63
2022/06/07 04:30:02;;;;;;;14.52;7.70;;;31.30;99.90;;;;;;5072296;28;20048;-67
2022/06/07 04:32:28;;;;;;;15.77;8.20;;;31.30;99.90;;;;;;5072917;28;20025;-65
2022/06/07 04:34:55;;;;;;;16.88;8.60;;;31.30;99.90;;;;;;5072865;28;20025;-64
2022/06/07 04:37:23;;;;;;;30.30;15.57;;;31.30;99.90;;;;;;5072579;28;20012;-63
2022/06/07 04:39:49;;;;;;;16.15;8.73;;;31.20;99.90;;;;;;5066451;28;20100;-64
2022/06/07 04:42:16;;;;;;;13.65;6.90;;;31.30;99.90;;;;;;5067909;28;20021;-63
2022/06/07 04:44:43;;;;;;;16.27;7.70;;;31.30;99.90;;;;;;5067272;28;20035;-64
2022/06/07 04:47:09;;;;;;;11.07;6.50;;;31.30;99.90;;;;;;5070801;28;20461;-65
2022/06/07 04:49:36;;;;;;;15.45;7.43;;;31.30;99.90;;;;;;5074609;28;20032;-64
2022/06/07 04:52:03;;;;;;;17.58;9.00;;;31.30;99.90;;;;;;5068686;28;20028;-64
2022/06/07 04:54:30;;;;;;;11.77;7.22;;;31.30;99.90;;;;;;5059695;28;20028;-64
2022/06/07 04:56:56;;;;;;;9.43;7.05;;;31.30;99.90;;;;;;5069283;28;20029;-63
2022/06/07 04:59:23;;;;;;;10.00;6.75;;;31.30;99.90;;;;;;5067909;28;20043;-63
2022/06/07 05:01:49;;;;;;;17.77;10.23;;;31.30;99.90;;;;;;5067442;28;20017;-63
2022/06/07 05:04:16;;;;;;;17.33;8.90;;;31.30;99.90;;;;;;5067432;28;20020;-63
2022/06/07 05:06:43;;;;;;;16.05;7.53;;;31.30;99.90;;;;;;5066845;28;20013;-66
2022/06/07 05:09:14;;;;;;;10.20;6.88;;;31.30;99.90;;;;;;5068303;28;20128;-67
2022/06/07 05:11:41;;;;;;;15.68;7.68;;;31.30;99.90;;;;;;5069531;28;20063;-67
2022/06/07 05:14:08;;;;;;;24.10;14.55;;;31.30;99.90;;;;;;5072666;28;20025;-65
2022/06/07 05:16:41;;;;;;;23.13;17.70;;;31.30;99.90;;;;;;5071117;28;20051;-63
2022/06/07 05:19:12;;;;;;;34.20;24.27;;;31.30;99.90;;;;;;5067973;28;20507;-68
2022/06/07 05:21:40;;;;;;;34.75;24.80;;;31.40;99.90;;;;;;5070850;28;20020;-66
2022/06/07 05:24:07;;;;;;;38.38;25.83;;;31.40;99.90;;;;;;5070709;28;20443;-67
2022/06/07 05:26:47;;;;;;;39.72;29.17;;;31.40;99.90;;;;;;5070483;28;20492;-64
2022/06/07 05:29:32;;;;;;;35.33;26.63;;;31.40;99.90;;;;;;5070966;28;20072;-67
2022/06/07 05:31:58;;;;;;;32.17;24.25;;;31.50;99.90;;;;;;5072500;28;20202;-65
2022/06/07 05:34:25;;;;;;;22.38;12.95;;;31.60;99.90;;;;;;5073765;28;20031;-65
2022/06/07 05:36:52;;;;;;;14.52;10.18;;;31.70;99.90;;;;;;5071155;28;20039;-63
2022/06/07 05:39:27;;;;;;;11.63;9.40;;;31.80;99.90;;;;;;5070890;28;20028;-64
2022/06/07 05:41:54;;;;;;;11.32;6.55;;;31.80;99.90;;;;;;5071681;28;20469;-65
2022/06/07 05:44:22;;;;;;;10.95;8.27;;;31.90;98.70;;;;;;5071307;28;20512;-66
2022/06/07 05:46:50;;;;;;;13.57;8.50;;;32.10;99.40;;;;;;5071021;28;20484;-65
2022/06/07 05:49:17;;;;;;;11.30;7.70;;;32.20;98.60;;;;;;5068955;28;20120;-64
2022/06/07 05:51:44;;;;;;;25.48;17.88;;;32.30;97.80;;;;;;5073097;28;20029;-65
2022/06/07 05:54:13;;;;;;;25.95;17.75;;;32.30;97.70;;;;;;5074089;28;20025;-64
2022/06/07 05:56:40;;;;;;;36.25;24.65;;;32.30;98.20;;;;;;5072366;28;20103;-60
2022/06/07 05:59:07;;;;;;;36.72;24.17;;;32.30;97.80;;;;;;5070515;28;20047;-63
2022/06/07 06:01:35;;;;;;;27.08;21.10;;;32.30;98.40;;;;;;5071882;28;20032;-63
2022/06/07 06:04:03;;;;;;;12.52;8.93;;;32.60;97.00;;;;;;5071463;28;20020;-64
2022/06/07 06:06:31;;;;;;;13.25;8.93;;;32.70;96.30;;;;;;5072704;28;20021;-63
2022/06/07 06:11:43;;;;;;;15.68;9.95;;;32.90;95.00;;;;;;5073583;28;20492;-64
2022/06/07 06:14:10;;;;;;;12.48;9.13;;;32.90;94.60;;;;;;5073725;28;20036;-62
2022/06/07 06:16:37;;;;;;;11.15;6.95;;;32.90;95.40;;;;;;5067823;28;20040;-61
2022/06/07 06:19:04;;;;;;;8.63;4.82;;;33.00;95.10;;;;;;5072523;28;20268;-61
2022/06/07 06:21:37;;;;;;;5.90;4.22;;;33.00;94.20;;;;;;5073236;28;20074;-63
2022/06/07 06:24:04;;;;;;;7.57;4.43;;;32.90;94.60;;;;;;5073135;28;20033;-63
2022/06/07 06:26:31;;;;;;;11.52;5.13;;;32.80;95.20;;;;;;5071994;28;20131;-61
2022/06/07 06:28:59;;;;;;;14.57;4.43;;;32.80;94.50;;;;;;5068069;28;20386;-62
2022/06/07 06:31:26;;;;;;;8.57;3.65;;;33.00;93.90;;;;;;5069239;28;20075;-63
2022/06/07 06:33:54;;;;;;;12.15;4.30;;;33.10;93.20;;;;;;5072390;28;20020;-65
2022/06/07 06:36:24;;;;;;;7.88;4.97;;;33.30;92.80;;;;;;5072623;28;20386;-63
2022/06/07 06:38:51;;;;;;;12.27;7.15;;;33.10;93.40;;;;;;5074342;28;20024;-62
2022/06/07 06:41:24;;;;;;;9.68;4.50;;;33.00;94.40;;;;;;5074122;28;20465;-61
2022/06/07 06:43:52;;;;;;;7.60;4.03;;;32.90;94.30;;;;;;5073757;28;20033;-63
2022/06/07 06:46:23;;;;;;;6.95;3.75;;;32.80;94.60;;;;;;5066296;28;20024;-65
2022/06/07 06:48:50;;;;;;;4.55;3.88;;;32.70;94.30;;;;;;5074284;28;20067;-63
2022/06/07 06:51:20;;;;;;;5.97;3.70;;;32.70;93.30;;;;;;5071123;28;20108;-64
2022/06/07 06:53:47;;;;;;;7.80;4.22;;;32.60;93.70;;;;;;5063047;28;20168;-64
2022/06/07 06:56:18;;;;;;;4.97;3.28;;;32.50;93.30;;;;;;5064570;28;20020;-64
2022/06/07 06:58:45;;;;;;;7.97;3.80;;;32.50;93.40;;;;;;5064777;28;20036;-65
2022/06/07 07:01:18;;;;;;;12.45;5.50;;;32.50;93.60;;;;;;5071004;28;20039;-64
2022/06/07 07:03:44;;;;;;;12.18;5.85;;;32.40;94.10;;;;;;5073767;28;20016;-63
2022/06/07 07:06:13;;;;;;;23.15;12.05;;;32.40;95.20;;;;;;5074182;28;20032;-65
2022/06/07 07:08:42;;;;;;;14.93;8.43;;;32.30;94.70;;;;;;5072193;28;20020;-64
2022/06/07 07:11:09;;;;;;;18.80;7.75;;;32.10;94.80;;;;;;5072678;28;20507;-66
2022/06/07 07:13:37;;;;;;;29.35;13.48;;;32.00;94.80;;;;;;5073590;28;20024;-63
2022/06/07 07:16:07;;;;;;;16.42;9.60;;;32.00;95.90;;;;;;5073717;28;20074;-64
2022/06/07 07:18:35;;;;;;;23.30;12.55;;;31.80;96.80;;;;;;5073685;28;20401;-64
2022/06/07 07:21:07;;;;;;;40.17;24.52;;;31.70;97.60;;;;;;5070935;28;20401;-64
2022/06/07 07:23:35;;;;;;;34.80;17.27;;;31.60;97.30;;;;;;5073464;28;20087;-63
2022/06/07 07:26:08;;;;;;;19.05;9.82;;;31.50;96.80;;;;;;5070578;28;20020;-64
2022/06/07 07:28:36;;;;;;;17.50;10.02;;;31.50;96.30;;;;;;5073383;28;20040;-63
2022/06/07 07:31:07;;;;;;;22.85;10.85;;;31.50;96.10;;;;;;5073461;28;20021;-67
2022/06/07 07:33:35;;;;;;;21.02;11.43;;;31.50;96.30;;;;;;5073755;28;20029;-64
2022/06/07 07:36:04;;;;;;;21.45;11.52;;;31.60;96.60;;;;;;5070627;28;20035;-66
2022/06/07 07:38:31;;;;;;;19.45;11.10;;;31.60;96.70;;;;;;5073204;28;20108;-64
2022/06/07 07:41:00;;;;;;;28.92;15.05;;;31.60;96.50;;;;;;5073523;28;20078;-64
2022/06/07 07:43:27;;;;;;;24.23;13.23;;;31.70;96.80;;;;;;5055024;28;20385;-64
2022/06/07 07:45:55;;;;;;;29.52;13.25;;;31.70;97.10;;;;;;5065164;28;20100;-66
2022/06/07 07:48:24;;;;;;;25.58;14.23;;;31.80;96.90;;;;;;5066803;28;20473;-63
2022/06/07 07:50:51;;;;;;;22.60;12.80;;;31.80;98.00;;;;;;5063810;28;20120;-65
2022/06/07 07:53:19;;;;;;;22.48;12.02;;;31.80;98.50;;;;;;5060947;28;20146;-64
2022/06/07 07:55:48;;;;;;;23.25;11.68;;;31.80;98.50;;;;;;5063985;28;20478;-66
2022/06/07 07:58:16;;;;;;;33.83;13.55;;;31.70;99.20;;;;;;5067283;28;20563;-62
2022/06/07 08:00:45;;;;;;;23.55;12.15;;;31.70;99.30;;;;;;5059951;28;20513;-64
2022/06/07 08:03:12;;;;;;;19.65;12.38;;;31.70;99.30;;;;;;5061484;28;20054;-64
2022/06/07 08:05:39;;;;;;;16.92;11.60;;;31.80;99.20;;;;;;5065989;28;20032;-63
2022/06/07 08:08:06;;;;;;;24.27;12.30;;;31.80;98.90;;;;;;5062324;28;20021;-61
2022/06/07 08:10:34;;;;;;;22.58;11.05;;;31.90;98.50;;;;;;5063536;28;20056;-61
2022/06/07 08:13:02;;;;;;;26.95;12.60;;;31.90;98.50;;;;;;5062527;28;20079;-63
2022/06/07 08:15:32;;;;;;;27.33;12.40;;;31.90;98.50;;;;;;5065769;28;20100;-62
2022/06/07 08:18:02;;;;;;;22.27;12.68;;;32.00;98.60;;;;;;5068521;28;20406;-62
2022/06/07 08:20:32;;;;;;;22.02;11.82;;;31.90;97.90;;;;;;5064437;28;20028;-63
2022/06/07 08:22:59;;;;;;;22.33;11.93;;;31.90;97.30;;;;;;5067967;28;20428;-62
2022/06/07 08:25:26;;;;;;;37.50;18.60;;;31.90;97.50;;;;;;5065833;28;20096;-64
2022/06/07 08:27:52;;;;;;;39.90;19.13;;;32.00;97.90;;;;;;5063520;28;20115;-64
2022/06/07 08:30:20;;;;;;;46.10;20.90;;;32.00;97.40;;;;;;5074022;28;20044;-62
2022/06/07 08:32:47;;;;;;;29.83;15.65;;;32.10;97.70;;;;;;5076321;28;20029;-62
2022/06/07 08:38:04;;;;;;;21.30;12.32;;;32.40;96.30;;;;;;5081492;28;20040;-62
2022/06/07 08:40:57;;;;;;;22.90;11.90;;;32.50;95.60;;;;;;5062644;28;20148;-63
2022/06/07 08:43:25;;;;;;;28.58;11.07;;;32.60;96.20;;;;;;5067977;28;20036;-61
2022/06/07 08:45:54;;;;;;;19.35;9.70;;;32.70;95.30;;;;;;5072705;28;20021;-62
2022/06/07 08:48:28;;;;;;;16.35;9.40;;;32.80;95.00;;;;;;5066321;28;20102;-63
2022/06/07 08:51:28;;;;;;;16.92;8.32;;;32.90;95.00;;;;;;5069569;28;20025;-62
2022/06/07 08:54:02;;;;;;;12.23;8.73;;;33.00;94.90;;;;;;5069706;28;20036;-62
2022/06/07 08:56:32;;;;;;;16.88;8.27;;;33.00;93.30;;;;;;5068727;28;20028;-65
2022/06/07 08:59:09;;;;;;;14.57;7.63;;;33.10;93.60;;;;;;5070222;28;20552;-63
2022/06/07 09:01:38;;;;;;;15.48;6.82;;;33.10;93.50;;;;;;5075329;28;20044;-62
2022/06/07 09:04:36;;;;;;;13.05;7.07;;;33.10;92.90;;;;;;5077042;28;20033;-65
2022/06/07 09:07:11;;;;;;;20.42;10.02;;;33.10;93.10;;;;;;5076466;28;20023;-63
2022/06/07 09:12:28;;;;;;;14.65;8.05;;;33.10;93.00;;;;;;5069873;28;20036;-64
2022/06/07 09:15:10;;;;;;;15.45;8.75;;;33.20;93.50;;;;;;5077271;28;20048;-64
2022/06/07 09:17:41;;;;;;;12.03;6.30;;;33.10;93.30;;;;;;5067577;28;20033;-65
2022/06/07 09:20:20;;;;;;;8.43;5.35;;;33.20;92.00;;;;;;5075472;28;20399;-64
2022/06/07 09:22:55;;;;;;;20.85;5.18;;;33.20;91.40;;;;;;5070898;28;20040;-64
2022/06/07 09:25:34;;;;;;;18.75;9.18;;;33.10;90.60;;;;;;5075775;28;20147;-64
2022/06/07 09:28:03;;;;;;;22.65;11.63;;;33.10;90.80;;;;;;5073352;28;20056;-64
2022/06/07 09:30:37;;;;;;;16.30;6.35;;;33.00;92.40;;;;;;5071959;28;20040;-63
2022/06/07 09:33:25;;;;;;;12.23;5.28;;;32.90;93.40;;;;;;5072321;28;20481;-64
2022/06/07 09:35:55;;;;;;;11.07;6.00;;;32.80;94.00;;;;;;5070616;28;20393;-62
2022/06/07 09:38:46;;;;;;;13.32;5.70;;;32.80;94.40;;;;;;5073803;28;20029;-63
2022/06/07 09:41:37;;;;;;;9.65;6.25;;;32.60;94.20;;;;;;5075200;28;20028;-63
2022/06/07 09:44:29;;;;;;;14.88;8.98;;;32.40;93.60;;;;;;5075816;28;20481;-62
2022/06/07 09:47:05;;;;;;;21.25;10.02;;;32.30;93.80;;;;;;5067512;28;20056;-61
2022/06/07 09:49:44;;;;;;;13.27;6.90;;;32.30;94.20;;;;;;5065238;28;20482;-64
2022/06/07 09:52:25;;;;;;;13.30;5.65;;;32.20;92.00;;;;;;5059949;28;20069;-64
2022/06/07 09:55:19;;;;;;;14.40;7.73;;;32.10;91.60;;;;;;5070548;28;20098;-62
2022/06/07 09:58:27;;;;;;;28.60;10.88;;;32.00;91.50;;;;;;5064569;28;20261;-62
2022/06/07 10:01:06;;;;;;;26.33;10.70;;;31.80;92.60;;;;;;5013017;28;20064;-63
2022/06/07 10:04:11;;;;;;;29.08;14.07;;;31.60;94.60;;;;;;5072641;28;20554;-64
2022/06/07 10:06:43;;;;;;;34.75;16.23;;;31.30;94.90;;;;;;4972809;28;20110;-62
2022/06/07 10:09:26;;;;;;;23.67;9.82;;;31.00;95.30;;;;;;4971877;28;20042;-63
2022/06/07 10:12:02;;;;;;;43.67;20.20;;;30.50;96.40;;;;;;5028791;28;20493;-64
2022/06/07 10:14:51;;;;;;;46.78;21.85;;;30.20;97.80;;;;;;5065757;28;20497;-62
2022/06/07 10:17:42;;;;;;;25.75;15.57;;;29.90;99.20;;;;;;5066360;28;20055;-63
2022/06/07 10:20:26;;;;;;;48.47;16.10;;;30.00;99.30;;;;;;5065460;28;20032;-62
2022/06/07 10:23:29;;;;;;;38.58;14.82;;;29.70;99.90;;;;;;5065810;28;20031;-63
2022/06/07 10:26:21;;;;;;;28.38;9.07;;;28.60;99.90;;;;;;5065950;28;20087;-63
2022/06/07 10:29:13;;;;;;;10.75;3.63;;;27.90;99.90;;;;;;5065147;28;20053;-64
2022/06/07 10:32:06;;;;;;;27.48;9.10;;;27.60;99.90;;;;;;5072715;28;20044;-63
2022/06/07 10:34:46;;;;;;;;;;;27.60;99.90;;;;;;5062673;28;20044;-63
2022/06/07 10:37:22;;;;;;;27.75;10.43;;;27.60;99.90;;;;;;5063481;28;19912;-63
2022/06/07 10:40:18;;;;;;;22.40;9.15;;;27.80;99.90;;;;;;5063500;28;20060;-64
2022/06/07 10:42:59;;;;;;;15.88;6.68;;;28.00;99.90;;;;;;5060534;28;20119;-66
2022/06/07 10:45:37;;;;;;;18.43;7.43;;;28.10;99.90;;;;;;5064045;28;20020;-64
2022/06/07 10:48:38;;;;;;;22.05;8.27;;;28.20;99.90;;;;;;5063415;28;20009;-65
2022/06/07 10:54:45;;;;;;;15.68;7.20;;;28.70;99.90;;;;;;5066011;28;20082;-66
2022/06/07 10:57:25;;;;;;;13.43;5.35;;;28.80;99.90;;;;;;5060170;28;20118;-65
2022/06/07 10:59:52;;;;;;;15.13;6.57;;;28.80;99.90;;;;;;5068400;28;20051;-66
2022/06/07 11:02:22;;;;;;;8.85;5.10;;;28.80;99.90;;;;;;5068718;28;20019;-67
2022/06/07 11:11:08;;;;;;;8.65;5.43;;;29.10;99.90;;;;;;5068356;28;20063;-63
2022/06/07 11:13:46;;;;;;;13.05;6.80;;;29.20;99.90;;;;;;5071130;28;20378;-63
2022/06/07 11:16:39;;;;;;;15.73;7.72;;;29.30;99.90;;;;;;5045230;28;20037;-64
2022/06/07 11:19:08;;;;;;;14.05;7.30;;;29.40;99.90;;;;;;5063791;28;20457;-65
2022/06/07 11:21:47;;;;;;;10.52;6.60;;;29.40;99.90;;;;;;5062959;28;20048;-63
2022/06/07 11:25:00;;;;;;;8.85;5.97;;;29.30;99.90;;;;;;5065509;28;20477;-66
2022/06/07 11:27:29;;;;;;;18.33;7.93;;;29.30;99.90;;;;;;5056283;28;20044;-63
2022/06/07 11:30:22;;;;;;;12.82;8.00;;;29.40;99.90;;;;;;5064493;28;20052;-65
2022/06/07 11:32:55;;;;;;;12.13;7.22;;;29.40;99.90;;;;;;5023342;28;20440;-65
2022/06/07 11:35:45;;;;;;;14.68;8.35;;;29.40;99.90;;;;;;5061640;28;20025;-65
2022/06/07 11:38:17;;;;;;;18.17;9.73;;;29.40;99.90;;;;;;5063173;28;20040;-64
2022/06/07 11:40:46;;;;;;;19.00;13.73;;;29.20;99.90;;;;;;5053564;28;20029;-65
2022/06/07 11:43:49;;;;;;;23.63;14.18;;;29.10;99.90;;;;;;5053633;28;20182;-65
2022/06/07 11:46:38;;;;;;;21.35;13.18;;;29.00;99.90;;;;;;5057458;28;20017;-62
2022/06/07 11:49:20;;;;;;;21.65;13.27;;;29.20;99.90;;;;;;5061944;28;20442;-65
2022/06/07 11:51:57;;;;;;;19.77;13.90;;;29.20;99.90;;;;;;5067710;28;20370;-65
2022/06/07 11:54:45;;;;;;;23.05;12.93;;;29.30;99.90;;;;;;5068755;28;20016;-65
2022/06/07 11:57:33;;;;;;;19.95;11.32;;;29.20;99.90;;;;;;5064693;28;20021;-64
2022/06/07 12:00:15;;;;;;;22.23;10.73;;;29.20;99.90;;;;;;5042752;28;20122;-66
2022/06/07 12:02:43;;;;;;;16.10;11.60;;;29.20;99.90;;;;;;5053922;28;20032;-62
2022/06/07 12:05:16;;;;;;;24.67;12.13;;;29.30;99.90;;;;;;5068177;28;20025;-66
2022/06/07 12:07:51;;;;;;;21.55;12.32;;;29.30;99.90;;;;;;5064976;28;20035;-65
2022/06/07 12:10:18;;;;;;;22.98;14.10;;;29.30;99.90;;;;;;5068277;28;20079;-66
2022/06/07 12:12:58;;;;;;;21.63;13.50;;;29.30;99.90;;;;;;5068223;28;20432;-65
2022/06/07 12:15:52;;;;;;;22.95;12.40;;;29.30;99.90;;;;;;5068356;28;20078;-66
2022/06/07 12:18:26;;;;;;;23.05;12.60;;;29.30;99.90;;;;;;5067677;28;20033;-65
2022/06/07 12:21:15;;;;;;;24.75;15.10;;;29.30;99.90;;;;;;5073092;28;20032;-65
2022/06/07 12:23:48;;;;;;;29.77;16.67;;;29.30;99.90;;;;;;5066689;28;20421;-64
2022/06/07 12:27:08;;;;;;;31.70;18.98;;;29.20;99.90;;;;;;5070314;28;20032;-65
2022/06/07 12:29:49;;;;;;;31.95;18.33;;;29.20;99.90;;;;;;5036391;28;20056;-65
2022/06/07 12:32:31;;;;;;;33.50;20.23;;;29.20;99.90;;;;;;5072097;28;20052;-64
2022/06/07 12:35:24;;;;;;;41.42;24.42;;;29.20;99.90;;;;;;5044231;28;20044;-65
2022/06/07 12:38:06;;;;;;;42.08;26.58;;;29.20;99.90;;;;;;5055190;28;20543;-66
2022/06/07 12:40:50;;;;;;;42.03;26.70;;;29.30;99.90;;;;;;5071307;28;20385;-64
2022/06/07 12:43:31;;;;;;;40.40;23.05;;;29.20;99.90;;;;;;5071269;28;20037;-64
2022/06/07 12:50:13;;;;;;;26.45;17.88;;;28.90;99.90;;;;;;5023610;28;20520;-67
2022/06/07 12:52:58;;;;;;;25.30;15.70;;;28.80;99.90;;;;;;5049633;28;20033;-69
2022/06/07 12:56:14;;;;;;;25.70;15.15;;;28.80;99.90;;;;;;5018278;28;20049;-66
2022/06/07 12:59:09;;;;;;;27.73;15.07;;;28.80;99.90;;;;;;5000540;28;20038;-66
2022/06/07 13:02:43;;;;;;;22.58;14.60;;;28.70;99.90;;;;;;5024953;28;20030;-66
2022/06/07 13:06:01;;;;;;;24.27;18.60;;;28.70;99.90;;;;;;4991743;28;20501;-65
2022/06/07 13:09:00;;;;;;;65.90;45.80;;;28.80;99.90;;;;;;5039623;22;20050;-67
2022/06/07 13:12:03;;;;;;;55.97;40.45;;;28.70;99.90;;;;;;5082531;28;20419;-66
2022/06/07 13:15:13;;;;;;;63.65;41.88;;;28.70;99.90;;;;;;5080142;28;20055;-65
2022/06/07 13:18:46;;;;;;;56.75;35.20;;;28.80;99.90;;;;;;5084474;28;20085;-67
2022/06/07 13:22:08;;;;;;;60.83;35.97;;;28.80;99.90;;;;;;5095368;28;20448;-65
2022/06/07 13:25:35;;;;;;;56.67;28.65;;;28.80;99.90;;;;;;5050906;28;20036;-66
2022/06/07 13:28:23;;;;;;;46.25;27.55;;;28.80;99.90;;;;;;5041776;28;20083;-65
2022/06/07 13:31:23;;;;;;;28.52;16.63;;;28.90;99.90;;;;;;5061801;28;20025;-63
2022/06/07 13:34:41;;;;;;;19.70;13.27;;;28.90;99.90;;;;;;5033704;28;20103;-66
2022/06/07 13:38:06;;;;;;;34.38;20.67;;;29.00;99.90;;;;;;5063121;28;20485;-66
2022/06/07 13:47:37;;;;;;;57.60;33.55;;;28.90;99.90;;;;;;5053947;28;20040;-66